Lefor, ND (58641)

7:28 PM MDT on September 28, 2016 (GMT -0600)
Pines Estate | | Change Station

Elev 2694 ft 46.66 °N, 102.70 °W | Updated 11 seconds ago

Clear
Clear
58.3 °F
Feels Like 58.3 °F
N
6.7
Wind Variable Wind from SE
Gusts 7.4 mph

Today
High -- | Low -- °F
--% Chance of Precip.
Yesterday
High -- | Low -- °F
Precip. -- in
Pressure 30.29 in
Visibility 10.0 miles
Clouds Clear
Dew Point 40 °F
Humidity 51%
Rainfall 0.00 in
Snow Depth Not available.
6:46 AM 6:35 PM
Waning Crescent, 4% visible
METAR KDIK 290056Z AUTO 11009KT 10SM CLR 14/04 A3027 RMK AO2 SLP256 T01440044
Pressure 30.29 in
Visibility 10.0 miles
Clouds Clear
Dew Point 40 °F
Humidity 51%
Rainfall 0.00 in
Snow Depth Not available.
6:46 AM 6:35 PM
Waning Crescent, 4% visible
METAR KDIK 290056Z AUTO 11009KT 10SM CLR 14/04 A3027 RMK AO2 SLP256 T01440044

10-Day Weather Forecast

Almanac

Astronomy

Sep. 28, 2016 Rise Set
Actual Time
Civil Twilight
Nautical Twilight
Astronomical Twilight
Moon
Length of Visible Light
Length of Day
Tomorrow will be .
, % of the Moon is Illuminated

Today's Extremes

State Highs State Lows

Community

WunderPhotos

Upload Photos

1,942,387 photos uploaded!

WunderBlog® & News

Nearby

Air Quality

  Air Quality AQ Index Pollutant
Not available.

Snow Depth

Station Depth Elevation

Earthquake Activity

City Distance Mag. Time & Date
Minimum magnitude displayed is 2.5.

Coastal Water Temperatures

Place Temperature

Stations

Nearby Weather Stations

Station Location Temp. Windchill Dew Point Humidity Wind Precip. Elev Updated Type
                   

Watches & Warnings

There are currently no watches in effect.